Texanna, Oklahoma
Current Conditions -  °F | °C
As of 9:53 PM on Saturday 25 Oct 2014 (Local Time) from KMKO Reporting Station
Clear Clear  
Wind Chill: 66°   Ceiling: Unl
Heat Index: 66°   Visibility: 10mi
Dew Point: 63°   Wind: 7mph
Humidity: 90%   Direction: 150°SSE
Pressure: 30.03"   Gusts: NA
Location:  35.4498°N, 95.4869°W
Report Text: KMKO 260253Z AUTO 15006KT 10SM CLR 19/17 A3003 RMK AO2 SLP162 T01890172 52003
Loading
Personal Weather Stations






























Interactive Weather Map New forecast layout! Learn more

10-Day Weather Forecast

Advertisements
Track Severe Weather on mobile